sensor_id;sensor_type;location;lat;lon;timestamp;temperature;humidity
16635;DHT22;8431;52.458;9.998;2022-07-23T00:00:00;14.00;99.90
16635;DHT22;8431;52.458;9.998;2022-07-23T00:02:27;13.90;99.90
16635;DHT22;8431;52.458;9.998;2022-07-23T00:04:54;13.90;99.90
16635;DHT22;8431;52.458;9.998;2022-07-23T00:07:21;13.90;99.90
16635;DHT22;8431;52.458;9.998;2022-07-23T00:09:49;13.80;99.90
16635;DHT22;8431;52.458;9.998;2022-07-23T00:12:17;13.90;99.90
16635;DHT22;8431;52.458;9.998;2022-07-23T00:14:44;13.80;99.90
16635;DHT22;8431;52.458;9.998;2022-07-23T00:17:10;13.90;99.90
16635;DHT22;8431;52.458;9.998;2022-07-23T00:19:38;13.90;99.90
16635;DHT22;8431;52.458;9.998;2022-07-23T00:22:05;14.00;99.90
16635;DHT22;8431;52.458;9.998;2022-07-23T00:24:32;14.00;99.90
16635;DHT22;8431;52.458;9.998;2022-07-23T00:27:00;14.10;99.90
16635;DHT22;8431;52.458;9.998;2022-07-23T00:29:29;14.10;99.90
16635;DHT22;8431;52.458;9.998;2022-07-23T00:31:56;14.20;99.90
16635;DHT22;8431;52.458;9.998;2022-07-23T00:34:24;14.10;99.90
16635;DHT22;8431;52.458;9.998;2022-07-23T00:36:51;14.10;99.90
16635;DHT22;8431;52.458;9.998;2022-07-23T00:39:19;14.00;99.90
16635;DHT22;8431;52.458;9.998;2022-07-23T00:41:47;13.90;99.90
16635;DHT22;8431;52.458;9.998;2022-07-23T00:44:16;13.80;99.90
16635;DHT22;8431;52.458;9.998;2022-07-23T00:46:48;13.80;99.90
16635;DHT22;8431;52.458;9.998;2022-07-23T00:49:15;13.70;99.90
16635;DHT22;8431;52.458;9.998;2022-07-23T00:51:42;13.70;99.90
16635;DHT22;8431;52.458;9.998;2022-07-23T00:54:10;13.60;99.90
16635;DHT22;8431;52.458;9.998;2022-07-23T00:56:37;13.60;99.90
16635;DHT22;8431;52.458;9.998;2022-07-23T00:59:05;13.50;99.90
16635;DHT22;8431;52.458;9.998;2022-07-23T01:01:34;13.40;99.90
16635;DHT22;8431;52.458;9.998;2022-07-23T01:04:02;13.40;99.90
16635;DHT22;8431;52.458;9.998;2022-07-23T01:06:29;13.40;99.90
16635;DHT22;8431;52.458;9.998;2022-07-23T01:08:57;13.40;99.90
16635;DHT22;8431;52.458;9.998;2022-07-23T01:11:24;13.40;99.90
16635;DHT22;8431;52.458;9.998;2022-07-23T01:13:52;13.40;99.90
16635;DHT22;8431;52.458;9.998;2022-07-23T01:16:19;13.30;99.90
16635;DHT22;8431;52.458;9.998;2022-07-23T01:18:48;13.30;99.90
16635;DHT22;8431;52.458;9.998;2022-07-23T01:21:18;13.20;99.90
16635;DHT22;8431;52.458;9.998;2022-07-23T01:23:46;13.10;99.90
16635;DHT22;8431;52.458;9.998;2022-07-23T01:26:13;13.10;99.90
16635;DHT22;8431;52.458;9.998;2022-07-23T01:28:43;13.10;99.90
16635;DHT22;8431;52.458;9.998;2022-07-23T01:31:10;13.00;99.90
16635;DHT22;8431;52.458;9.998;2022-07-23T01:33:40;13.00;99.90
16635;DHT22;8431;52.458;9.998;2022-07-23T01:36:07;13.00;99.90
16635;DHT22;8431;52.458;9.998;2022-07-23T01:38:35;12.90;99.90
16635;DHT22;8431;52.458;9.998;2022-07-23T01:41:03;12.90;99.90
16635;DHT22;8431;52.458;9.998;2022-07-23T01:43:30;12.90;99.90
16635;DHT22;8431;52.458;9.998;2022-07-23T01:45:57;12.70;99.90
16635;DHT22;8431;52.458;9.998;2022-07-23T01:48:24;12.60;99.90
16635;DHT22;8431;52.458;9.998;2022-07-23T01:50:51;12.50;99.90
16635;DHT22;8431;52.458;9.998;2022-07-23T01:53:19;12.50;99.90
16635;DHT22;8431;52.458;9.998;2022-07-23T01:55:54;12.40;99.90
16635;DHT22;8431;52.458;9.998;2022-07-23T01:58:22;12.30;99.90
16635;DHT22;8431;52.458;9.998;2022-07-23T02:00:49;12.30;99.90
16635;DHT22;8431;52.458;9.998;2022-07-23T02:03:16;12.20;99.90
16635;DHT22;8431;52.458;9.998;2022-07-23T02:05:43;12.30;99.90
16635;DHT22;8431;52.458;9.998;2022-07-23T02:08:11;12.30;99.90
16635;DHT22;8431;52.458;9.998;2022-07-23T02:10:41;12.40;99.90
16635;DHT22;8431;52.458;9.998;2022-07-23T02:13:08;12.50;99.90
16635;DHT22;8431;52.458;9.998;2022-07-23T02:15:37;12.50;99.90
16635;DHT22;8431;52.458;9.998;2022-07-23T02:18:04;12.60;99.90
16635;DHT22;8431;52.458;9.998;2022-07-23T02:20:31;12.60;99.90
16635;DHT22;8431;52.458;9.998;2022-07-23T02:22:59;12.60;99.90
16635;DHT22;8431;52.458;9.998;2022-07-23T02:25:26;12.70;99.90
16635;DHT22;8431;52.458;9.998;2022-07-23T02:27:53;12.70;99.90
16635;DHT22;8431;52.458;9.998;2022-07-23T02:30:20;12.70;99.90
16635;DHT22;8431;52.458;9.998;2022-07-23T02:32:48;12.70;99.90
16635;DHT22;8431;52.458;9.998;2022-07-23T02:35:15;12.60;99.90
16635;DHT22;8431;52.458;9.998;2022-07-23T02:37:42;12.60;99.90
16635;DHT22;8431;52.458;9.998;2022-07-23T02:40:10;12.50;99.90
16635;DHT22;8431;52.458;9.998;2022-07-23T02:42:37;12.50;99.90
16635;DHT22;8431;52.458;9.998;2022-07-23T02:45:05;12.50;99.90
16635;DHT22;8431;52.458;9.998;2022-07-23T02:47:32;12.60;99.90
16635;DHT22;8431;52.458;9.998;2022-07-23T02:50:01;12.60;99.90
16635;DHT22;8431;52.458;9.998;2022-07-23T02:52:29;12.70;99.90
16635;DHT22;8431;52.458;9.998;2022-07-23T02:54:56;12.80;99.90
16635;DHT22;8431;52.458;9.998;2022-07-23T02:57:23;12.80;99.90
16635;DHT22;8431;52.458;9.998;2022-07-23T02:59:50;12.80;99.90
16635;DHT22;8431;52.458;9.998;2022-07-23T03:02:17;12.80;99.90
16635;DHT22;8431;52.458;9.998;2022-07-23T03:04:44;12.70;99.90
16635;DHT22;8431;52.458;9.998;2022-07-23T03:07:12;12.70;99.90
16635;DHT22;8431;52.458;9.998;2022-07-23T03:09:39;12.80;99.90
16635;DHT22;8431;52.458;9.998;2022-07-23T03:12:07;12.90;99.90
16635;DHT22;8431;52.458;9.998;2022-07-23T03:14:34;13.00;99.90
16635;DHT22;8431;52.458;9.998;2022-07-23T03:17:01;13.10;99.90
16635;DHT22;8431;52.458;9.998;2022-07-23T03:19:28;13.10;99.90
16635;DHT22;8431;52.458;9.998;2022-07-23T03:21:55;13.10;99.90
16635;DHT22;8431;52.458;9.998;2022-07-23T03:24:24;13.20;99.90
16635;DHT22;8431;52.458;9.998;2022-07-23T03:27:11;13.20;99.90
16635;DHT22;8431;52.458;9.998;2022-07-23T03:29:38;13.20;99.90
16635;DHT22;8431;52.458;9.998;2022-07-23T03:32:05;13.30;99.90
16635;DHT22;8431;52.458;9.998;2022-07-23T03:34:32;13.40;99.90
16635;DHT22;8431;52.458;9.998;2022-07-23T03:36:59;13.50;99.90
16635;DHT22;8431;52.458;9.998;2022-07-23T03:39:28;13.50;99.90
16635;DHT22;8431;52.458;9.998;2022-07-23T03:41:55;13.50;99.90
16635;DHT22;8431;52.458;9.998;2022-07-23T03:44:22;13.50;99.90
16635;DHT22;8431;52.458;9.998;2022-07-23T03:46:49;13.40;99.90
16635;DHT22;8431;52.458;9.998;2022-07-23T03:49:16;13.50;99.90
16635;DHT22;8431;52.458;9.998;2022-07-23T03:51:43;13.50;99.90
16635;DHT22;8431;52.458;9.998;2022-07-23T03:54:10;13.50;99.90
16635;DHT22;8431;52.458;9.998;2022-07-23T03:56:39;13.50;99.90
16635;DHT22;8431;52.458;9.998;2022-07-23T03:59:06;13.60;99.90
16635;DHT22;8431;52.458;9.998;2022-07-23T04:01:33;13.60;99.90
16635;DHT22;8431;52.458;9.998;2022-07-23T04:04:00;13.60;99.90
16635;DHT22;8431;52.458;9.998;2022-07-23T04:06:47;13.60;99.90
16635;DHT22;8431;52.458;9.998;2022-07-23T04:09:35;13.60;99.90
16635;DHT22;8431;52.458;9.998;2022-07-23T04:12:24;13.60;99.90
16635;DHT22;8431;52.458;9.998;2022-07-23T04:15:11;13.70;99.90
16635;DHT22;8431;52.458;9.998;2022-07-23T04:17:59;13.70;99.90
16635;DHT22;8431;52.458;9.998;2022-07-23T04:20:46;13.80;99.90
16635;DHT22;8431;52.458;9.998;2022-07-23T04:23:33;13.80;99.90
16635;DHT22;8431;52.458;9.998;2022-07-23T04:26:20;13.80;99.90
16635;DHT22;8431;52.458;9.998;2022-07-23T04:29:09;13.90;99.90
16635;DHT22;8431;52.458;9.998;2022-07-23T04:31:57;13.90;99.90
16635;DHT22;8431;52.458;9.998;2022-07-23T04:34:44;14.00;99.90
16635;DHT22;8431;52.458;9.998;2022-07-23T04:37:31;14.00;99.90
16635;DHT22;8431;52.458;9.998;2022-07-23T04:40:19;14.10;99.90
16635;DHT22;8431;52.458;9.998;2022-07-23T04:43:06;14.10;99.90
16635;DHT22;8431;52.458;9.998;2022-07-23T04:45:55;14.20;99.90
16635;DHT22;8431;52.458;9.998;2022-07-23T04:48:42;14.20;99.90
16635;DHT22;8431;52.458;9.998;2022-07-23T04:51:30;14.20;99.90
16635;DHT22;8431;52.458;9.998;2022-07-23T04:54:17;14.30;99.90
16635;DHT22;8431;52.458;9.998;2022-07-23T04:57:04;14.20;99.90
16635;DHT22;8431;52.458;9.998;2022-07-23T04:59:51;14.20;99.90
16635;DHT22;8431;52.458;9.998;2022-07-23T05:02:40;14.10;99.90
16635;DHT22;8431;52.458;9.998;2022-07-23T05:05:27;14.10;99.90
16635;DHT22;8431;52.458;9.998;2022-07-23T05:08:15;14.00;99.90
16635;DHT22;8431;52.458;9.998;2022-07-23T05:11:02;13.90;99.90
16635;DHT22;8431;52.458;9.998;2022-07-23T05:13:49;13.90;99.90
16635;DHT22;8431;52.458;9.998;2022-07-23T05:16:37;13.90;99.90
16635;DHT22;8431;52.458;9.998;2022-07-23T05:19:26;13.90;99.90
16635;DHT22;8431;52.458;9.998;2022-07-23T05:22:13;13.90;99.90
16635;DHT22;8431;52.458;9.998;2022-07-23T05:25:00;13.90;99.90
16635;DHT22;8431;52.458;9.998;2022-07-23T05:27:48;13.70;99.90
16635;DHT22;8431;52.458;9.998;2022-07-23T05:30:35;13.70;99.90
16635;DHT22;8431;52.458;9.998;2022-07-23T05:33:23;13.70;99.90
16635;DHT22;8431;52.458;9.998;2022-07-23T05:36:11;13.80;99.90
16635;DHT22;8431;52.458;9.998;2022-07-23T05:38:59;14.10;99.90
16635;DHT22;8431;52.458;9.998;2022-07-23T05:41:46;14.40;99.90
16635;DHT22;8431;52.458;9.998;2022-07-23T05:44:34;14.60;99.90
16635;DHT22;8431;52.458;9.998;2022-07-23T05:47:21;14.80;99.90
16635;DHT22;8431;52.458;9.998;2022-07-23T05:50:10;15.00;99.90
16635;DHT22;8431;52.458;9.998;2022-07-23T05:52:59;15.00;99.90
16635;DHT22;8431;52.458;9.998;2022-07-23T05:55:46;15.10;99.90
16635;DHT22;8431;52.458;9.998;2022-07-23T05:58:33;15.20;99.90
16635;DHT22;8431;52.458;9.998;2022-07-23T06:01:21;15.30;99.90
16635;DHT22;8431;52.458;9.998;2022-07-23T06:04:08;15.30;99.90
16635;DHT22;8431;52.458;9.998;2022-07-23T06:06:55;15.20;99.90
16635;DHT22;8431;52.458;9.998;2022-07-23T06:09:44;15.20;99.90
16635;DHT22;8431;52.458;9.998;2022-07-23T06:12:32;15.30;99.90
16635;DHT22;8431;52.458;9.998;2022-07-23T06:15:20;15.40;99.90
16635;DHT22;8431;52.458;9.998;2022-07-23T06:18:07;15.50;99.90
16635;DHT22;8431;52.458;9.998;2022-07-23T06:20:54;15.60;99.90
16635;DHT22;8431;52.458;9.998;2022-07-23T06:23:42;16.30;99.90
16635;DHT22;8431;52.458;9.998;2022-07-23T06:26:31;17.10;99.90
16635;DHT22;8431;52.458;9.998;2022-07-23T06:29:18;18.00;99.90
16635;DHT22;8431;52.458;9.998;2022-07-23T06:32:05;18.70;99.90
16635;DHT22;8431;52.458;9.998;2022-07-23T06:34:52;18.40;99.90
16635;DHT22;8431;52.458;9.998;2022-07-23T06:37:40;18.00;99.90
16635;DHT22;8431;52.458;9.998;2022-07-23T06:40:27;17.40;99.90
16635;DHT22;8431;52.458;9.998;2022-07-23T06:43:16;17.30;99.90
16635;DHT22;8431;52.458;9.998;2022-07-23T06:46:03;17.30;99.90
16635;DHT22;8431;52.458;9.998;2022-07-23T06:48:51;17.20;99.90
16635;DHT22;8431;52.458;9.998;2022-07-23T06:51:38;17.10;99.90
16635;DHT22;8431;52.458;9.998;2022-07-23T06:54:25;17.10;99.90
16635;DHT22;8431;52.458;9.998;2022-07-23T06:57:12;17.30;99.90
16635;DHT22;8431;52.458;9.998;2022-07-23T07:00:01;17.40;99.90
16635;DHT22;8431;52.458;9.998;2022-07-23T07:02:49;17.40;99.90
16635;DHT22;8431;52.458;9.998;2022-07-23T07:05:19;17.60;99.90
16635;DHT22;8431;52.458;9.998;2022-07-23T07:07:47;17.70;99.90
16635;DHT22;8431;52.458;9.998;2022-07-23T07:10:14;17.90;99.90
16635;DHT22;8431;52.458;9.998;2022-07-23T07:12:42;17.90;99.90
16635;DHT22;8431;52.458;9.998;2022-07-23T07:15:10;18.00;99.90
16635;DHT22;8431;52.458;9.998;2022-07-23T07:17:38;18.30;99.90
16635;DHT22;8431;52.458;9.998;2022-07-23T07:20:05;18.40;99.90
16635;DHT22;8431;52.458;9.998;2022-07-23T07:22:33;18.30;99.90
16635;DHT22;8431;52.458;9.998;2022-07-23T07:25:00;18.40;99.90
16635;DHT22;8431;52.458;9.998;2022-07-23T07:27:27;18.40;99.90
16635;DHT22;8431;52.458;9.998;2022-07-23T07:29:54;18.60;99.90
16635;DHT22;8431;52.458;9.998;2022-07-23T07:32:22;18.80;99.90
16635;DHT22;8431;52.458;9.998;2022-07-23T07:34:49;18.50;99.90
16635;DHT22;8431;52.458;9.998;2022-07-23T07:37:16;18.20;99.90
16635;DHT22;8431;52.458;9.998;2022-07-23T07:39:43;18.30;99.90
16635;DHT22;8431;52.458;9.998;2022-07-23T07:42:10;18.70;99.90
16635;DHT22;8431;52.458;9.998;2022-07-23T07:44:37;19.00;99.90
16635;DHT22;8431;52.458;9.998;2022-07-23T07:47:04;19.10;99.90
16635;DHT22;8431;52.458;9.998;2022-07-23T07:49:33;18.80;99.90
16635;DHT22;8431;52.458;9.998;2022-07-23T07:52:00;18.60;99.90
16635;DHT22;8431;52.458;9.998;2022-07-23T07:54:27;18.70;99.90
16635;DHT22;8431;52.458;9.998;2022-07-23T07:56:54;19.30;99.90
16635;DHT22;8431;52.458;9.998;2022-07-23T07:59:21;19.40;99.90
16635;DHT22;8431;52.458;9.998;2022-07-23T08:01:48;19.50;99.90
16635;DHT22;8431;52.458;9.998;2022-07-23T08:04:15;19.80;99.90
16635;DHT22;8431;52.458;9.998;2022-07-23T08:06:44;19.70;99.90
16635;DHT22;8431;52.458;9.998;2022-07-23T08:09:11;19.70;99.90
16635;DHT22;8431;52.458;9.998;2022-07-23T08:11:38;19.80;99.90
16635;DHT22;8431;52.458;9.998;2022-07-23T08:14:05;19.90;99.90
16635;DHT22;8431;52.458;9.998;2022-07-23T08:16:32;19.50;99.90
16635;DHT22;8431;52.458;9.998;2022-07-23T08:18:59;18.80;99.90
16635;DHT22;8431;52.458;9.998;2022-07-23T08:21:26;19.00;99.90
16635;DHT22;8431;52.458;9.998;2022-07-23T08:23:55;19.20;99.90
16635;DHT22;8431;52.458;9.998;2022-07-23T08:26:22;19.70;99.90
16635;DHT22;8431;52.458;9.998;2022-07-23T08:28:49;19.80;99.90
16635;DHT22;8431;52.458;9.998;2022-07-23T08:31:16;19.80;99.90
16635;DHT22;8431;52.458;9.998;2022-07-23T08:33:43;19.80;99.90
16635;DHT22;8431;52.458;9.998;2022-07-23T08:36:10;19.70;99.90
16635;DHT22;8431;52.458;9.998;2022-07-23T08:38:37;19.70;99.90
16635;DHT22;8431;52.458;9.998;2022-07-23T08:41:07;19.30;99.90
16635;DHT22;8431;52.458;9.998;2022-07-23T08:43:35;19.10;99.90
16635;DHT22;8431;52.458;9.998;2022-07-23T08:46:03;19.10;99.90
16635;DHT22;8431;52.458;9.998;2022-07-23T08:48:31;19.20;99.90
16635;DHT22;8431;52.458;9.998;2022-07-23T08:51:00;19.30;99.90
16635;DHT22;8431;52.458;9.998;2022-07-23T08:53:29;19.60;99.90
16635;DHT22;8431;52.458;9.998;2022-07-23T08:55:57;19.90;99.90
16635;DHT22;8431;52.458;9.998;2022-07-23T08:58:26;20.40;99.90
16635;DHT22;8431;52.458;9.998;2022-07-23T09:00:53;21.00;99.90
16635;DHT22;8431;52.458;9.998;2022-07-23T09:03:22;21.30;99.90
16635;DHT22;8431;52.458;9.998;2022-07-23T09:05:49;21.20;99.90
16635;DHT22;8431;52.458;9.998;2022-07-23T09:08:18;20.70;99.90
16635;DHT22;8431;52.458;9.998;2022-07-23T09:10:49;20.30;99.90
16635;DHT22;8431;52.458;9.998;2022-07-23T09:13:29;20.30;99.90
16635;DHT22;8431;52.458;9.998;2022-07-23T09:15:58;20.30;99.90
16635;DHT22;8431;52.458;9.998;2022-07-23T09:18:40;20.10;99.90
16635;DHT22;8431;52.458;9.998;2022-07-23T09:21:19;20.00;99.90
16635;DHT22;8431;52.458;9.998;2022-07-23T09:23:51;19.90;99.90
16635;DHT22;8431;52.458;9.998;2022-07-23T09:26:24;19.80;99.90
16635;DHT22;8431;52.458;9.998;2022-07-23T09:28:54;20.30;99.90
16635;DHT22;8431;52.458;9.998;2022-07-23T09:31:23;20.90;99.90
16635;DHT22;8431;52.458;9.998;2022-07-23T09:33:51;21.40;99.90
16635;DHT22;8431;52.458;9.998;2022-07-23T09:36:32;21.60;99.90
16635;DHT22;8431;52.458;9.998;2022-07-23T09:38:59;21.90;99.90
16635;DHT22;8431;52.458;9.998;2022-07-23T09:41:34;21.90;99.90
16635;DHT22;8431;52.458;9.998;2022-07-23T09:44:08;21.90;99.90
16635;DHT22;8431;52.458;9.998;2022-07-23T09:46:37;22.20;99.90
16635;DHT22;8431;52.458;9.998;2022-07-23T09:49:12;22.20;99.90
16635;DHT22;8431;52.458;9.998;2022-07-23T09:51:54;22.00;99.90
16635;DHT22;8431;52.458;9.998;2022-07-23T09:54:31;21.60;99.90
16635;DHT22;8431;52.458;9.998;2022-07-23T09:57:02;21.20;99.90
16635;DHT22;8431;52.458;9.998;2022-07-23T09:59:34;21.00;99.90
16635;DHT22;8431;52.458;9.998;2022-07-23T10:02:01;20.80;99.90
16635;DHT22;8431;52.458;9.998;2022-07-23T10:04:30;20.50;99.90
16635;DHT22;8431;52.458;9.998;2022-07-23T10:06:59;20.50;99.90
16635;DHT22;8431;52.458;9.998;2022-07-23T10:09:28;20.60;99.90
16635;DHT22;8431;52.458;9.998;2022-07-23T10:11:57;21.00;99.90
16635;DHT22;8431;52.458;9.998;2022-07-23T10:14:38;21.10;99.90
16635;DHT22;8431;52.458;9.998;2022-07-23T10:17:06;21.60;99.90
16635;DHT22;8431;52.458;9.998;2022-07-23T10:19:33;21.80;99.90
16635;DHT22;8431;52.458;9.998;2022-07-23T10:22:02;21.60;99.90
16635;DHT22;8431;52.458;9.998;2022-07-23T10:24:47;21.50;99.90
16635;DHT22;8431;52.458;9.998;2022-07-23T10:30:14;20.80;99.90
16635;DHT22;8431;52.458;9.998;2022-07-23T10:32:49;20.50;99.90
16635;DHT22;8431;52.458;9.998;2022-07-23T10:35:24;20.60;99.90
16635;DHT22;8431;52.458;9.998;2022-07-23T10:37:57;21.20;99.90
16635;DHT22;8431;52.458;9.998;2022-07-23T10:40:31;22.00;99.90
16635;DHT22;8431;52.458;9.998;2022-07-23T10:42:59;22.80;99.90
16635;DHT22;8431;52.458;9.998;2022-07-23T10:45:32;23.00;99.90
16635;DHT22;8431;52.458;9.998;2022-07-23T10:48:12;23.10;99.90
16635;DHT22;8431;52.458;9.998;2022-07-23T10:50:45;23.80;99.90
16635;DHT22;8431;52.458;9.998;2022-07-23T10:53:53;23.70;99.90
16635;DHT22;8431;52.458;9.998;2022-07-23T10:56:49;23.50;99.90
16635;DHT22;8431;52.458;9.998;2022-07-23T10:59:16;23.40;99.90
16635;DHT22;8431;52.458;9.998;2022-07-23T11:01:45;22.50;99.90
16635;DHT22;8431;52.458;9.998;2022-07-23T11:04:12;21.60;99.90
16635;DHT22;8431;52.458;9.998;2022-07-23T11:07:07;21.50;99.90
16635;DHT22;8431;52.458;9.998;2022-07-23T11:09:41;21.90;99.90
16635;DHT22;8431;52.458;9.998;2022-07-23T11:12:33;22.50;99.90
16635;DHT22;8431;52.458;9.998;2022-07-23T11:15:04;23.00;99.90
16635;DHT22;8431;52.458;9.998;2022-07-23T11:17:34;23.60;99.90
16635;DHT22;8431;52.458;9.998;2022-07-23T11:20:19;23.90;99.90
16635;DHT22;8431;52.458;9.998;2022-07-23T11:22:51;24.10;99.90
16635;DHT22;8431;52.458;9.998;2022-07-23T11:25:35;24.10;99.90
16635;DHT22;8431;52.458;9.998;2022-07-23T11:28:14;23.30;99.90
16635;DHT22;8431;52.458;9.998;2022-07-23T11:30:44;23.00;99.90
16635;DHT22;8431;52.458;9.998;2022-07-23T11:33:20;22.70;99.90
16635;DHT22;8431;52.458;9.998;2022-07-23T11:38:33;22.90;99.90
16635;DHT22;8431;52.458;9.998;2022-07-23T11:41:02;23.60;99.90
16635;DHT22;8431;52.458;9.998;2022-07-23T11:43:29;23.50;99.90
16635;DHT22;8431;52.458;9.998;2022-07-23T11:45:58;23.80;99.90
16635;DHT22;8431;52.458;9.998;2022-07-23T11:48:28;23.50;99.90
16635;DHT22;8431;52.458;9.998;2022-07-23T11:50:57;23.40;99.90
16635;DHT22;8431;52.458;9.998;2022-07-23T11:53:25;23.30;99.90
16635;DHT22;8431;52.458;9.998;2022-07-23T11:55:53;23.10;99.90
16635;DHT22;8431;52.458;9.998;2022-07-23T11:58:21;23.20;99.90
16635;DHT22;8431;52.458;9.998;2022-07-23T12:00:48;22.60;99.90
16635;DHT22;8431;52.458;9.998;2022-07-23T12:03:17;22.50;99.90
16635;DHT22;8431;52.458;9.998;2022-07-23T12:05:47;22.80;99.90
16635;DHT22;8431;52.458;9.998;2022-07-23T12:08:15;23.30;99.90
16635;DHT22;8431;52.458;9.998;2022-07-23T12:10:44;23.50;99.90
16635;DHT22;8431;52.458;9.998;2022-07-23T12:13:13;23.70;99.90
16635;DHT22;8431;52.458;9.998;2022-07-23T12:15:43;23.70;99.90
16635;DHT22;8431;52.458;9.998;2022-07-23T12:18:12;24.10;99.90
16635;DHT22;8431;52.458;9.998;2022-07-23T12:20:41;24.40;99.90
16635;DHT22;8431;52.458;9.998;2022-07-23T12:23:12;24.30;99.90
16635;DHT22;8431;52.458;9.998;2022-07-23T12:25:42;24.30;99.90
16635;DHT22;8431;52.458;9.998;2022-07-23T12:28:11;24.20;99.90
16635;DHT22;8431;52.458;9.998;2022-07-23T12:30:40;23.90;99.90
16635;DHT22;8431;52.458;9.998;2022-07-23T12:33:09;23.30;99.90
16635;DHT22;8431;52.458;9.998;2022-07-23T12:35:38;23.20;99.90
16635;DHT22;8431;52.458;9.998;2022-07-23T12:38:08;23.20;99.90
16635;DHT22;8431;52.458;9.998;2022-07-23T12:40:43;23.40;99.90
16635;DHT22;8431;52.458;9.998;2022-07-23T12:43:23;23.60;99.90
16635;DHT22;8431;52.458;9.998;2022-07-23T12:45:53;23.80;99.90
16635;DHT22;8431;52.458;9.998;2022-07-23T12:48:22;24.10;99.90
16635;DHT22;8431;52.458;9.998;2022-07-23T12:51:04;24.10;99.90
16635;DHT22;8431;52.458;9.998;2022-07-23T12:53:38;24.00;99.90
16635;DHT22;8431;52.458;9.998;2022-07-23T12:56:10;23.70;99.90
16635;DHT22;8431;52.458;9.998;2022-07-23T12:58:42;24.00;99.90
16635;DHT22;8431;52.458;9.998;2022-07-23T13:01:22;24.20;99.90
16635;DHT22;8431;52.458;9.998;2022-07-23T13:03:56;23.70;99.90
16635;DHT22;8431;52.458;9.998;2022-07-23T13:06:23;23.40;99.90
16635;DHT22;8431;52.458;9.998;2022-07-23T13:08:50;23.50;99.90
16635;DHT22;8431;52.458;9.998;2022-07-23T13:11:18;23.80;99.90
16635;DHT22;8431;52.458;9.998;2022-07-23T13:13:45;24.10;99.90
16635;DHT22;8431;52.458;9.998;2022-07-23T13:16:12;24.30;99.90
16635;DHT22;8431;52.458;9.998;2022-07-23T13:18:39;24.40;99.90
16635;DHT22;8431;52.458;9.998;2022-07-23T13:21:07;23.50;99.90
16635;DHT22;8431;52.458;9.998;2022-07-23T13:23:34;23.00;99.90
16635;DHT22;8431;52.458;9.998;2022-07-23T13:26:02;23.00;99.90
16635;DHT22;8431;52.458;9.998;2022-07-23T13:28:30;23.40;99.90
16635;DHT22;8431;52.458;9.998;2022-07-23T13:30:57;23.40;99.90
16635;DHT22;8431;52.458;9.998;2022-07-23T13:33:25;23.60;99.90
16635;DHT22;8431;52.458;9.998;2022-07-23T13:35:53;23.70;99.90
16635;DHT22;8431;52.458;9.998;2022-07-23T13:38:21;23.90;99.90
16635;DHT22;8431;52.458;9.998;2022-07-23T13:40:49;24.20;99.90
16635;DHT22;8431;52.458;9.998;2022-07-23T13:43:18;24.00;99.90
16635;DHT22;8431;52.458;9.998;2022-07-23T13:45:48;23.70;99.90
16635;DHT22;8431;52.458;9.998;2022-07-23T13:48:15;23.80;99.90
16635;DHT22;8431;52.458;9.998;2022-07-23T13:50:58;24.00;99.90
16635;DHT22;8431;52.458;9.998;2022-07-23T13:53:46;24.00;99.90
16635;DHT22;8431;52.458;9.998;2022-07-23T13:56:13;24.40;99.90
16635;DHT22;8431;52.458;9.998;2022-07-23T13:58:40;24.90;99.90
16635;DHT22;8431;52.458;9.998;2022-07-23T14:01:09;25.00;99.90
16635;DHT22;8431;52.458;9.998;2022-07-23T14:03:36;24.80;99.90
16635;DHT22;8431;52.458;9.998;2022-07-23T14:06:04;24.40;99.90
16635;DHT22;8431;52.458;9.998;2022-07-23T14:08:31;24.40;99.90
16635;DHT22;8431;52.458;9.998;2022-07-23T14:10:58;24.40;99.90
16635;DHT22;8431;52.458;9.998;2022-07-23T14:13:26;24.20;99.90
16635;DHT22;8431;52.458;9.998;2022-07-23T14:15:53;23.80;99.90
16635;DHT22;8431;52.458;9.998;2022-07-23T14:18:21;23.90;99.90
16635;DHT22;8431;52.458;9.998;2022-07-23T14:20:48;23.90;99.90
16635;DHT22;8431;52.458;9.998;2022-07-23T14:23:15;23.90;99.90
16635;DHT22;8431;52.458;9.998;2022-07-23T14:25:42;23.80;99.90
16635;DHT22;8431;52.458;9.998;2022-07-23T14:28:09;23.70;99.90
16635;DHT22;8431;52.458;9.998;2022-07-23T14:30:41;23.80;99.90
16635;DHT22;8431;52.458;9.998;2022-07-23T14:33:31;24.00;99.90
16635;DHT22;8431;52.458;9.998;2022-07-23T14:35:58;24.40;99.90
16635;DHT22;8431;52.458;9.998;2022-07-23T14:38:25;24.70;99.90
16635;DHT22;8431;52.458;9.998;2022-07-23T14:40:53;24.60;99.90
16635;DHT22;8431;52.458;9.998;2022-07-23T14:43:23;24.20;99.90
16635;DHT22;8431;52.458;9.998;2022-07-23T14:45:50;24.10;99.90
16635;DHT22;8431;52.458;9.998;2022-07-23T14:48:17;24.00;99.90
16635;DHT22;8431;52.458;9.998;2022-07-23T14:50:46;24.00;99.90
16635;DHT22;8431;52.458;9.998;2022-07-23T14:53:12;23.90;99.90
16635;DHT22;8431;52.458;9.998;2022-07-23T14:55:40;23.50;99.90
16635;DHT22;8431;52.458;9.998;2022-07-23T14:58:07;23.50;99.90
16635;DHT22;8431;52.458;9.998;2022-07-23T15:00:34;23.50;99.90
16635;DHT22;8431;52.458;9.998;2022-07-23T15:03:01;23.40;99.90
16635;DHT22;8431;52.458;9.998;2022-07-23T15:05:29;23.00;99.90
16635;DHT22;8431;52.458;9.998;2022-07-23T15:07:57;22.90;99.90
16635;DHT22;8431;52.458;9.998;2022-07-23T15:10:24;23.20;99.90
16635;DHT22;8431;52.458;9.998;2022-07-23T15:12:53;23.00;99.90
16635;DHT22;8431;52.458;9.998;2022-07-23T15:15:20;22.70;99.90
16635;DHT22;8431;52.458;9.998;2022-07-23T15:17:47;22.70;99.90
16635;DHT22;8431;52.458;9.998;2022-07-23T15:20:18;23.10;99.90
16635;DHT22;8431;52.458;9.998;2022-07-23T15:22:55;23.50;99.90
16635;DHT22;8431;52.458;9.998;2022-07-23T15:25:30;23.80;99.90
16635;DHT22;8431;52.458;9.998;2022-07-23T15:27:58;23.90;99.90
16635;DHT22;8431;52.458;9.998;2022-07-23T15:30:25;23.80;99.90
16635;DHT22;8431;52.458;9.998;2022-07-23T15:32:52;23.80;99.90
16635;DHT22;8431;52.458;9.998;2022-07-23T15:35:20;24.00;99.90
16635;DHT22;8431;52.458;9.998;2022-07-23T15:37:47;24.10;99.90
16635;DHT22;8431;52.458;9.998;2022-07-23T15:40:14;24.20;99.70
16635;DHT22;8431;52.458;9.998;2022-07-23T15:42:46;24.10;99.90
16635;DHT22;8431;52.458;9.998;2022-07-23T15:45:13;24.10;99.80
16635;DHT22;8431;52.458;9.998;2022-07-23T15:47:41;24.10;99.90
16635;DHT22;8431;52.458;9.998;2022-07-23T15:50:09;23.90;99.90
16635;DHT22;8431;52.458;9.998;2022-07-23T15:52:36;23.90;99.90
16635;DHT22;8431;52.458;9.998;2022-07-23T15:55:04;23.90;99.70
16635;DHT22;8431;52.458;9.998;2022-07-23T15:57:32;23.60;99.90
16635;DHT22;8431;52.458;9.998;2022-07-23T16:00:00;23.50;99.90
16635;DHT22;8431;52.458;9.998;2022-07-23T16:02:27;23.30;99.90
16635;DHT22;8431;52.458;9.998;2022-07-23T16:04:54;23.20;99.90
16635;DHT22;8431;52.458;9.998;2022-07-23T16:07:22;23.30;99.90
16635;DHT22;8431;52.458;9.998;2022-07-23T16:09:49;23.50;99.90
16635;DHT22;8431;52.458;9.998;2022-07-23T16:12:16;23.50;99.90
16635;DHT22;8431;52.458;9.998;2022-07-23T16:14:43;23.50;99.90
16635;DHT22;8431;52.458;9.998;2022-07-23T16:17:12;23.70;99.90
16635;DHT22;8431;52.458;9.998;2022-07-23T16:19:38;24.00;99.90
16635;DHT22;8431;52.458;9.998;2022-07-23T16:22:06;24.10;99.70